Huvudsida
METAR-TAF:

METAR-TAF

Flygplatser :

Qaisumah, Saudiarabien

latitud: 28-19N, longitud: 046-07E, höjd: 358 m

Aktuellt väderrapport

Denna rapport gjordes för 55 minuter sedan, klockan 14:00 UTC
Vind 10 kt från nord/nordväst
Temperatur 46°C
Fuktighet 15%
Tryck 1005 hPa
Sikt 10 km eller mer
Inga moln under 1 500 m eller inga cumulonimbus

METAR: OEPA 261400Z 33010KT CAVOK 46/13 Q1005 NOSIG

Tid: 17:55 (14:55 UTC)

Väderprognos

Denna rapport gjordes för 3 timmar och 55 minuter sedan, klockan 11:00 UTC
Prognos gäller från 26 kl. 12 UTC till 27 kl. 18 UTC
Vind 15 kt från nord/nordväst
Sikt 10 km eller mer
Inga moln under 1 500 m eller inga cumulonimbus
Blir
från 26 kl. 20 UTC till 26 kl. 22 UTC
Vind 3 kt varierande vindriktning

TAF: OEPA 261100Z 2612/2718 34015KT CAVOK BECMG 2620/2622 VRB03KT

Aktuella väderrapporter och prognoser från 4000 flygplatser (METAR- och TAF-rapporter).

De tillgängliga stationerna syns som gula och röda prickar på kartan.

För musen över prickarna för att se namnen på stationerna.

Klicka sedan för att få väderrapporter och prognoser.

För att ändra kartan: Klicka på de gröna knapparna med ett svart kors på för att zooma in; den gröna knappen med ett streck på för att zooma ut; eller på de gröna pilarna för angränsande kartor.


METAR-TAF: